createdAt,value
2018-06-03T00:00:59.091Z,93.30
2018-06-03T00:03:31.535Z,93.40
2018-06-03T00:06:04.003Z,93.50
2018-06-03T00:08:36.699Z,93.60
2018-06-03T00:11:09.220Z,93.60
2018-06-03T00:13:41.760Z,93.70
2018-06-03T00:16:14.760Z,93.70
2018-06-03T00:18:47.176Z,93.70
2018-06-03T00:21:31.166Z,93.70
2018-06-03T00:24:03.706Z,93.60
2018-06-03T00:26:36.157Z,93.70
2018-06-03T00:29:08.589Z,93.70
2018-06-03T00:31:41.028Z,93.60
2018-06-03T00:34:13.747Z,93.60
2018-06-03T00:36:46.980Z,93.60
2018-06-03T00:39:19.393Z,93.60
2018-06-03T00:41:51.816Z,93.50
2018-06-03T00:44:24.639Z,93.70
2018-06-03T00:46:57.638Z,93.70
2018-06-03T00:49:30.403Z,93.70
2018-06-03T00:52:02.979Z,93.80
2018-06-03T00:54:35.815Z,93.90
2018-06-03T00:57:09.904Z,93.80
2018-06-03T00:59:42.436Z,93.90
2018-06-03T01:02:14.893Z,93.90
2018-06-03T01:04:47.407Z,93.90
2018-06-03T01:07:19.982Z,93.80
2018-06-03T01:09:52.378Z,93.70
2018-06-03T01:12:24.819Z,93.70
2018-06-03T01:14:57.194Z,93.80
2018-06-03T01:17:29.717Z,93.80
2018-06-03T01:20:02.148Z,93.80
2018-06-03T01:22:34.586Z,93.70
2018-06-03T01:25:07.130Z,93.90
2018-06-03T01:27:39.547Z,94.00
2018-06-03T01:30:12.014Z,94.00
2018-06-03T01:32:44.500Z,94.00
2018-06-03T01:35:17.057Z,94.00
2018-06-03T01:37:49.665Z,94.00
2018-06-03T01:40:22.084Z,94.10
2018-06-03T01:42:54.507Z,94.10
2018-06-03T01:45:26.898Z,94.00
2018-06-03T01:47:59.294Z,94.00
2018-06-03T01:53:04.392Z,94.00
2018-06-03T01:55:36.786Z,93.90
2018-06-03T01:58:09.665Z,93.90
2018-06-03T02:00:42.333Z,93.90
2018-06-03T02:03:14.761Z,93.80
2018-06-03T02:05:47.207Z,93.90
2018-06-03T02:08:19.859Z,94.10
2018-06-03T02:10:52.422Z,94.10
2018-06-03T02:13:25.727Z,94.10
2018-06-03T02:18:30.611Z,94.20
2018-06-03T02:21:03.071Z,94.20
2018-06-03T02:23:35.558Z,94.20
2018-06-03T02:26:08.070Z,94.10
2018-06-03T02:28:40.515Z,94.30
2018-06-03T02:31:12.946Z,94.40
2018-06-03T02:33:47.134Z,94.50
2018-06-03T02:36:19.558Z,94.60
2018-06-03T02:38:51.998Z,94.50
2018-06-03T02:41:24.432Z,94.60
2018-06-03T02:43:57.089Z,94.60
2018-06-03T02:46:29.489Z,94.70
2018-06-03T02:51:34.698Z,94.60
2018-06-03T02:54:08.376Z,94.70
2018-06-03T02:56:40.911Z,94.70
2018-06-03T02:59:13.392Z,94.70
2018-06-03T03:01:45.796Z,94.90
2018-06-03T03:04:18.193Z,94.80
2018-06-03T03:06:50.695Z,94.60
2018-06-03T03:09:23.123Z,94.70
2018-06-03T03:11:55.569Z,94.80
2018-06-03T03:17:00.611Z,94.90
2018-06-03T03:19:33.015Z,95.10
2018-06-03T03:22:05.402Z,95.10
2018-06-03T03:24:37.799Z,94.90
2018-06-03T03:27:10.227Z,95.00
2018-06-03T03:29:42.789Z,95.30
2018-06-03T03:32:15.946Z,94.90
2018-06-03T03:34:48.533Z,94.80
2018-06-03T03:37:20.945Z,94.70
2018-06-03T03:39:53.403Z,94.90
2018-06-03T03:42:25.902Z,94.60
2018-06-03T03:44:58.467Z,94.60
2018-06-03T03:47:31.190Z,94.50
2018-06-03T03:50:03.815Z,94.50
2018-06-03T03:52:36.232Z,94.60
2018-06-03T03:55:10.049Z,94.60
2018-06-03T03:57:42.449Z,94.60
2018-06-03T04:00:14.857Z,94.60
2018-06-03T04:02:47.267Z,94.40
2018-06-03T04:05:19.688Z,94.40
2018-06-03T04:07:52.204Z,94.60
2018-06-03T04:10:25.640Z,94.50
2018-06-03T04:12:58.031Z,94.20
2018-06-03T04:15:30.591Z,94.40
2018-06-03T04:18:03.019Z,94.20
2018-06-03T04:23:08.652Z,94.50
2018-06-03T04:25:41.083Z,94.20
2018-06-03T04:28:13.578Z,94.00
2018-06-03T04:30:45.962Z,94.00
2018-06-03T04:33:18.475Z,94.20
2018-06-03T04:35:50.918Z,94.70
2018-06-03T04:38:23.303Z,94.70
2018-06-03T04:40:55.739Z,94.30
2018-06-03T04:43:28.211Z,94.40
2018-06-03T04:46:00.698Z,94.40
2018-06-03T04:48:33.115Z,94.40
2018-06-03T04:51:05.513Z,94.60
2018-06-03T04:53:37.963Z,94.60
2018-06-03T04:56:10.406Z,94.50
2018-06-03T04:58:42.879Z,94.60
2018-06-03T05:01:15.951Z,94.50
2018-06-03T05:03:48.344Z,94.70
2018-06-03T05:06:20.903Z,94.60
2018-06-03T05:08:53.278Z,94.40
2018-06-03T05:11:26.146Z,94.50
2018-06-03T05:13:58.542Z,94.80
2018-06-03T05:16:31.640Z,94.70
2018-06-03T05:21:36.765Z,94.80
2018-06-03T05:24:09.895Z,94.60
2018-06-03T05:26:42.358Z,94.60
2018-06-03T05:31:47.924Z,94.60
2018-06-03T05:34:20.490Z,94.50
2018-06-03T05:39:25.468Z,94.80
2018-06-03T05:41:57.872Z,94.20
2018-06-03T05:44:30.473Z,94.00
2018-06-03T05:47:02.857Z,94.00
2018-06-03T05:52:07.637Z,94.40
2018-06-03T05:54:40.088Z,94.50
2018-06-03T05:57:12.595Z,94.50
2018-06-03T05:59:45.046Z,94.40
2018-06-03T06:02:17.553Z,94.50
2018-06-03T06:04:50.130Z,94.70
2018-06-03T06:07:22.911Z,94.50
2018-06-03T06:09:56.132Z,94.40
2018-06-03T06:12:28.681Z,94.20
2018-06-03T06:15:01.243Z,94.20
2018-06-03T06:17:33.751Z,94.20
2018-06-03T06:20:06.302Z,94.30
2018-06-03T06:22:39.074Z,94.30
2018-06-03T06:25:11.521Z,93.90
2018-06-03T06:27:44.302Z,94.00
2018-06-03T06:30:17.115Z,94.20
2018-06-03T06:32:49.538Z,94.10
2018-06-03T06:35:22.063Z,94.40
2018-06-03T06:37:55.227Z,94.10
2018-06-03T06:40:27.684Z,94.10
2018-06-03T06:43:00.145Z,93.90
2018-06-03T06:45:32.725Z,94.00
2018-06-03T06:48:05.359Z,93.90
2018-06-03T06:50:38.068Z,93.80
2018-06-03T06:53:11.206Z,93.60
2018-06-03T06:55:43.825Z,93.70
2018-06-03T06:58:16.687Z,93.70
2018-06-03T07:00:50.074Z,93.60
2018-06-03T07:03:22.735Z,93.60
2018-06-03T07:05:55.130Z,93.50
2018-06-03T07:08:27.770Z,93.30
2018-06-03T07:11:00.177Z,93.50
2018-06-03T07:13:32.702Z,93.60
2018-06-03T07:16:05.203Z,93.70
2018-06-03T07:18:37.907Z,93.50
2018-06-03T07:21:10.424Z,93.40
2018-06-03T07:26:15.723Z,93.40
2018-06-03T07:28:48.207Z,93.30
2018-06-03T07:31:21.149Z,93.20
2018-06-03T07:33:53.587Z,93.60
2018-06-03T07:36:26.027Z,93.50
2018-06-03T07:38:58.573Z,93.70
2018-06-03T07:41:30.988Z,93.70
2018-06-03T07:44:03.768Z,93.70
2018-06-03T07:46:36.358Z,93.90
2018-06-03T07:49:08.891Z,94.30
2018-06-03T07:51:41.537Z,94.30
2018-06-03T07:54:14.861Z,94.30
2018-06-03T07:56:47.350Z,94.30
2018-06-03T07:59:20.078Z,94.50
2018-06-03T08:01:52.654Z,94.40
2018-06-03T08:04:25.184Z,94.40
2018-06-03T08:06:57.894Z,94.30
2018-06-03T08:09:30.888Z,94.30
2018-06-03T08:12:03.578Z,94.60
2018-06-03T08:14:36.037Z,94.60
2018-06-03T08:17:08.652Z,94.40
2018-06-03T08:19:41.394Z,94.50
2018-06-03T08:22:14.582Z,94.80
2018-06-03T08:24:47.303Z,94.90
2018-06-03T08:27:20.032Z,95.10
2018-06-03T08:32:25.197Z,95.30
2018-06-03T08:34:58.473Z,95.50
2018-06-03T08:40:03.628Z,95.60
2018-06-03T08:42:36.129Z,95.30
2018-06-03T08:45:08.696Z,95.30
2018-06-03T08:47:41.113Z,95.10
2018-06-03T08:50:15.723Z,94.60
2018-06-03T08:52:48.535Z,94.90
2018-06-03T08:55:21.287Z,94.80
2018-06-03T08:57:53.865Z,95.00
2018-06-03T09:00:26.785Z,94.90
2018-06-03T09:02:59.391Z,94.70
2018-06-03T09:05:32.134Z,95.00
2018-06-03T09:08:04.731Z,94.80
2018-06-03T09:10:37.478Z,95.10
2018-06-03T09:13:09.982Z,95.00
2018-06-03T09:15:42.679Z,94.90
2018-06-03T09:18:15.176Z,95.10
2018-06-03T09:20:49.770Z,95.00
2018-06-03T09:23:22.329Z,94.80
2018-06-03T09:25:54.794Z,94.60
2018-06-03T09:28:27.306Z,94.90
2018-06-03T09:31:06.058Z,95.10
2018-06-03T09:33:38.596Z,95.00
2018-06-03T09:36:11.101Z,95.10
2018-06-03T09:38:44.319Z,95.30
2018-06-03T09:41:17.679Z,95.60
2018-06-03T09:43:50.787Z,95.60
2018-06-03T09:46:23.346Z,95.60
2018-06-03T09:48:56.235Z,95.60
2018-06-03T09:51:28.710Z,95.50
2018-06-03T09:54:01.199Z,95.20
2018-06-03T09:56:33.581Z,94.80
2018-06-03T10:01:38.729Z,93.60
2018-06-03T10:04:11.230Z,93.70
2018-06-03T10:06:43.841Z,93.20
2018-06-03T10:09:17.633Z,93.00
2018-06-03T10:11:50.427Z,92.80
2018-06-03T10:14:23.516Z,92.60
2018-06-03T10:16:56.291Z,92.70
2018-06-03T10:19:29.026Z,92.70
2018-06-03T10:22:02.600Z,92.30
2018-06-03T10:24:36.274Z,92.00
2018-06-03T10:27:08.747Z,91.90
2018-06-03T10:29:41.171Z,91.70
2018-06-03T10:32:13.882Z,91.60
2018-06-03T10:34:46.569Z,91.40
2018-06-03T10:37:19.063Z,91.30
2018-06-03T10:39:51.555Z,91.20
2018-06-03T10:42:24.159Z,91.70
2018-06-03T10:44:56.775Z,91.70
2018-06-03T10:47:29.242Z,92.00
2018-06-03T10:50:01.696Z,91.90
2018-06-03T10:52:34.143Z,92.00
2018-06-03T10:55:06.810Z,92.00
2018-06-03T10:57:39.240Z,92.10
2018-06-03T11:00:11.755Z,92.30
2018-06-03T11:02:44.248Z,92.10
2018-06-03T11:05:16.958Z,92.20
2018-06-03T11:07:49.474Z,92.10
2018-06-03T11:10:22.000Z,91.50
2018-06-03T11:12:54.599Z,91.60
2018-06-03T11:15:27.192Z,91.40
2018-06-03T11:17:59.917Z,91.30
2018-06-03T11:20:32.779Z,91.30
2018-06-03T11:23:05.520Z,90.90
2018-06-03T11:25:38.691Z,90.70
2018-06-03T11:28:11.392Z,90.60
2018-06-03T11:30:44.325Z,90.50
2018-06-03T11:33:17.508Z,90.40
2018-06-03T11:35:50.273Z,90.20
2018-06-03T11:38:22.754Z,90.20
2018-06-03T11:40:55.497Z,90.10
2018-06-03T11:43:28.053Z,90.10
2018-06-03T11:46:00.553Z,89.60
2018-06-03T11:48:33.012Z,89.30
2018-06-03T11:51:05.448Z,89.00
2018-06-03T11:53:37.917Z,88.70
2018-06-03T11:56:10.418Z,89.00
2018-06-03T11:58:54.581Z,88.10
2018-06-03T12:01:26.994Z,87.70
2018-06-03T12:03:59.743Z,88.00
2018-06-03T12:06:32.258Z,89.30
2018-06-03T12:09:05.863Z,89.20
2018-06-03T12:11:38.339Z,89.00
2018-06-03T12:14:10.842Z,87.10
2018-06-03T12:16:43.290Z,87.60
2018-06-03T12:19:15.919Z,87.80
2018-06-03T12:21:48.698Z,88.40
2018-06-03T12:24:21.387Z,88.30
2018-06-03T12:26:53.890Z,88.10
2018-06-03T12:29:26.396Z,87.80
2018-06-03T12:31:59.090Z,87.10
2018-06-03T12:34:31.622Z,86.80
2018-06-03T12:37:04.246Z,86.10
2018-06-03T12:39:36.785Z,86.50
2018-06-03T12:42:09.868Z,87.20
2018-06-03T12:44:42.378Z,87.70
2018-06-03T12:47:15.617Z,87.30
2018-06-03T12:49:48.193Z,86.30
2018-06-03T12:52:21.633Z,85.50
2018-06-03T12:54:54.191Z,85.60
2018-06-03T12:57:27.595Z,86.10
2018-06-03T13:00:00.093Z,84.80
2018-06-03T13:02:32.697Z,84.00
2018-06-03T13:05:06.255Z,84.50
2018-06-03T13:07:38.936Z,84.90
2018-06-03T13:10:11.550Z,85.00
2018-06-03T13:12:44.144Z,84.80
2018-06-03T13:15:16.807Z,85.20
2018-06-03T13:20:22.342Z,85.00
2018-06-03T13:22:55.260Z,85.00
2018-06-03T13:25:27.858Z,84.40
2018-06-03T13:28:00.506Z,84.00
2018-06-03T13:30:32.986Z,83.50
2018-06-03T13:33:05.646Z,83.40
2018-06-03T13:35:39.062Z,82.70
2018-06-03T13:38:11.965Z,82.60
2018-06-03T13:43:17.676Z,81.60
2018-06-03T13:45:50.384Z,81.20
2018-06-03T13:48:22.889Z,82.30
2018-06-03T13:53:28.393Z,81.60
2018-06-03T13:56:01.289Z,79.90
2018-06-03T13:58:34.329Z,80.50
2018-06-03T14:01:07.040Z,80.20
2018-06-03T14:03:40.441Z,79.40
2018-06-03T14:06:13.235Z,78.70
2018-06-03T14:08:45.984Z,78.50
2018-06-03T14:11:18.662Z,78.00
2018-06-03T14:13:51.729Z,77.70
2018-06-03T14:16:25.096Z,78.20
2018-06-03T14:18:57.876Z,78.40
2018-06-03T14:21:30.492Z,78.10
2018-06-03T14:24:03.083Z,76.70
2018-06-03T14:26:36.372Z,75.50
2018-06-03T14:29:08.978Z,75.30
2018-06-03T14:31:41.469Z,74.80
2018-06-03T14:34:14.629Z,75.70
2018-06-03T14:36:47.286Z,74.60
2018-06-03T14:39:19.876Z,74.20
2018-06-03T14:41:52.325Z,74.20
2018-06-03T14:44:25.293Z,74.40
2018-06-03T14:46:58.016Z,74.10
2018-06-03T14:49:30.667Z,74.50
2018-06-03T14:52:03.651Z,74.30
2018-06-03T14:54:36.183Z,72.90
2018-06-03T14:57:08.812Z,70.80
2018-06-03T14:59:41.445Z,71.10
2018-06-03T15:02:13.931Z,71.40
2018-06-03T15:04:47.042Z,71.10
2018-06-03T15:07:19.543Z,71.60
2018-06-03T15:09:52.145Z,70.50
2018-06-03T15:12:24.783Z,71.50
2018-06-03T15:14:57.398Z,70.60
2018-06-03T15:17:30.098Z,70.30
2018-06-03T15:20:02.859Z,70.60
2018-06-03T15:22:35.661Z,70.80
2018-06-03T15:25:09.822Z,72.20
2018-06-03T15:27:43.503Z,73.20
2018-06-03T15:30:16.088Z,74.60
2018-06-03T15:32:48.783Z,75.30
2018-06-03T15:35:21.695Z,75.70
2018-06-03T15:37:54.480Z,75.80
2018-06-03T15:40:27.393Z,75.70
2018-06-03T15:43:00.651Z,76.20
2018-06-03T15:45:34.394Z,76.30
2018-06-03T15:48:07.964Z,77.00
2018-06-03T15:50:40.424Z,77.10
2018-06-03T15:53:13.156Z,76.50
2018-06-03T15:55:45.740Z,77.10
2018-06-03T15:58:18.317Z,76.80
2018-06-03T16:00:51.110Z,76.70
2018-06-03T16:03:23.758Z,76.40
2018-06-03T16:05:56.409Z,76.10
2018-06-03T16:08:28.982Z,75.90
2018-06-03T16:13:34.502Z,87.50
2018-06-03T16:16:07.222Z,74.90
2018-06-03T16:21:12.333Z,75.10
2018-06-03T16:23:44.939Z,75.80
2018-06-03T16:26:17.484Z,76.10
2018-06-03T16:28:50.521Z,76.60
2018-06-03T16:31:23.419Z,76.30
2018-06-03T16:33:56.041Z,75.80
2018-06-03T16:36:28.694Z,75.00
2018-06-03T16:39:01.414Z,75.00
2018-06-03T16:41:34.133Z,75.70
2018-06-03T16:44:07.202Z,75.70
2018-06-03T16:46:39.864Z,75.70
2018-06-03T16:49:12.671Z,76.30
2018-06-03T16:51:45.243Z,76.50
2018-06-03T16:54:17.878Z,77.00
2018-06-03T16:56:50.697Z,77.50
2018-06-03T16:59:23.353Z,77.20
2018-06-03T17:04:29.161Z,77.20
2018-06-03T17:07:01.921Z,76.60
2018-06-03T17:09:34.556Z,76.20
2018-06-03T17:12:08.249Z,76.40
2018-06-03T17:14:40.840Z,76.70
2018-06-03T17:17:13.679Z,77.50
2018-06-03T17:19:46.225Z,77.80
2018-06-03T17:22:19.194Z,77.90
2018-06-03T17:24:51.957Z,78.20
2018-06-03T17:27:24.858Z,78.30
2018-06-03T17:29:59.119Z,78.50
2018-06-03T17:32:32.670Z,78.80
2018-06-03T17:35:05.439Z,79.40
2018-06-03T17:37:38.011Z,78.90
2018-06-03T17:40:10.635Z,80.20
2018-06-03T17:42:43.235Z,80.30
2018-06-03T17:45:16.095Z,80.50
2018-06-03T17:47:49.155Z,80.30
2018-06-03T17:50:21.835Z,80.30
2018-06-03T17:52:54.364Z,81.60
2018-06-03T17:55:27.170Z,80.50
2018-06-03T17:57:59.858Z,80.70
2018-06-03T18:00:32.481Z,81.00
2018-06-03T18:03:05.216Z,81.20
2018-06-03T18:05:38.844Z,81.30
2018-06-03T18:08:11.483Z,81.20
2018-06-03T18:10:44.481Z,80.90
2018-06-03T18:13:17.103Z,81.10
2018-06-03T18:15:49.708Z,80.90
2018-06-03T18:18:22.417Z,81.20
2018-06-03T18:20:55.381Z,81.40
2018-06-03T18:23:28.327Z,81.40
2018-06-03T18:26:01.008Z,81.40
2018-06-03T18:28:33.492Z,81.50
2018-06-03T18:31:06.821Z,81.40
2018-06-03T18:33:39.506Z,81.30
2018-06-03T18:36:12.258Z,81.80
2018-06-03T18:38:45.341Z,81.60
2018-06-03T18:41:18.098Z,82.30
2018-06-03T18:43:50.824Z,81.90
2018-06-03T18:46:23.486Z,82.00
2018-06-03T18:48:56.271Z,81.00
2018-06-03T18:51:30.376Z,81.70
2018-06-03T18:54:02.969Z,81.90
2018-06-03T18:59:08.237Z,83.30
2018-06-03T19:01:41.317Z,82.50
2018-06-03T19:04:14.928Z,83.10
2018-06-03T19:06:47.800Z,83.00
2018-06-03T19:09:20.618Z,82.90
2018-06-03T19:11:53.518Z,82.50
2018-06-03T19:14:26.316Z,83.00
2018-06-03T19:16:59.183Z,83.30
2018-06-03T19:19:31.902Z,83.70
2018-06-03T19:22:04.570Z,83.60
2018-06-03T19:27:10.880Z,83.60
2018-06-03T19:29:44.080Z,83.80
2018-06-03T19:32:17.422Z,83.80
2018-06-03T19:34:51.270Z,84.10
2018-06-03T19:42:28.541Z,84.20
2018-06-03T19:45:00.990Z,84.30
2018-06-03T19:47:33.564Z,84.50
2018-06-03T19:50:06.605Z,84.60
2018-06-03T19:52:39.294Z,84.60
2018-06-03T19:55:12.313Z,85.30
2018-06-03T19:57:45.537Z,85.40
2018-06-03T20:00:18.290Z,85.00
2018-06-03T20:02:50.906Z,84.90
2018-06-03T20:05:23.765Z,85.10
2018-06-03T20:07:56.706Z,85.40
2018-06-03T20:10:29.370Z,85.40
2018-06-03T20:13:01.952Z,85.90
2018-06-03T20:15:34.384Z,86.50
2018-06-03T20:18:06.829Z,86.00
2018-06-03T20:20:39.395Z,86.40
2018-06-03T20:23:11.799Z,86.20
2018-06-03T20:25:44.685Z,86.40
2018-06-03T20:28:17.534Z,86.40
2018-06-03T20:30:50.057Z,86.40
2018-06-03T20:33:22.912Z,86.70
2018-06-03T20:35:55.742Z,86.60
2018-06-03T20:38:28.439Z,86.70
2018-06-03T20:41:01.672Z,87.20
2018-06-03T20:43:34.268Z,87.00
2018-06-03T20:46:07.312Z,87.40
2018-06-03T20:48:39.760Z,87.40
2018-06-03T20:51:12.163Z,87.50
2018-06-03T20:53:44.667Z,87.60
2018-06-03T20:56:17.129Z,87.60
2018-06-03T20:58:50.334Z,87.60
2018-06-03T21:01:23.120Z,87.80
2018-06-03T21:03:55.630Z,88.00
2018-06-03T21:06:28.329Z,88.20
2018-06-03T21:09:00.792Z,88.40
2018-06-03T21:11:33.617Z,88.50
2018-06-03T21:14:06.262Z,88.70
2018-06-03T21:16:39.440Z,88.90
2018-06-03T21:19:11.894Z,89.10
2018-06-03T21:21:44.299Z,89.50
2018-06-03T21:24:16.811Z,89.50
2018-06-03T21:26:49.279Z,89.70
2018-06-03T21:29:21.887Z,89.80
2018-06-03T21:31:54.683Z,89.90
2018-06-03T21:34:27.170Z,90.00
2018-06-03T21:37:00.000Z,90.00
2018-06-03T21:39:33.023Z,90.30
2018-06-03T21:42:05.466Z,90.10
2018-06-03T21:47:10.404Z,90.10
2018-06-03T21:49:42.882Z,90.20
2018-06-03T21:52:15.522Z,90.10
2018-06-03T21:54:47.974Z,90.20
2018-06-03T21:57:20.873Z,90.30
2018-06-03T21:59:53.390Z,90.30
2018-06-03T22:02:25.891Z,90.50
2018-06-03T22:04:58.399Z,90.60
2018-06-03T22:07:31.661Z,90.60
2018-06-03T22:10:04.430Z,90.60
2018-06-03T22:12:37.042Z,90.70
2018-06-03T22:15:10.495Z,90.70
2018-06-03T22:17:42.906Z,90.80
2018-06-03T22:20:15.405Z,91.00
2018-06-03T22:22:48.302Z,91.00
2018-06-03T22:25:20.760Z,91.00
2018-06-03T22:27:53.205Z,90.70
2018-06-03T22:30:25.627Z,91.10
2018-06-03T22:32:58.144Z,91.20
2018-06-03T22:35:36.543Z,91.40
2018-06-03T22:38:09.014Z,91.40
2018-06-03T22:40:41.519Z,91.50
2018-06-03T22:43:14.023Z,91.50
2018-06-03T22:45:46.520Z,91.60
2018-06-03T22:48:18.978Z,91.70
2018-06-03T22:50:51.539Z,91.70
2018-06-03T22:53:24.190Z,91.70
2018-06-03T22:55:57.655Z,91.70
2018-06-03T23:01:03.098Z,91.40
2018-06-03T23:03:36.297Z,92.00
2018-06-03T23:06:08.889Z,92.10
2018-06-03T23:08:41.469Z,92.30
2018-06-03T23:11:14.158Z,92.20
2018-06-03T23:13:46.762Z,92.30
2018-06-03T23:16:19.355Z,92.20
2018-06-03T23:18:51.918Z,92.30
2018-06-03T23:21:24.786Z,92.30
2018-06-03T23:23:58.005Z,92.30
2018-06-03T23:26:31.111Z,92.20
2018-06-03T23:29:04.647Z,92.30
2018-06-03T23:31:37.560Z,92.60
2018-06-03T23:34:10.367Z,92.80
2018-06-03T23:36:42.942Z,92.60
2018-06-03T23:39:15.720Z,92.50
2018-06-03T23:41:48.272Z,92.40
2018-06-03T23:44:20.767Z,92.30
2018-06-03T23:46:53.220Z,92.60
2018-06-03T23:49:25.614Z,92.50
2018-06-03T23:51:58.359Z,92.60
2018-06-03T23:54:30.764Z,92.40
2018-06-03T23:57:03.460Z,92.40
2018-06-03T23:59:35.948Z,92.60
